createdAt,value
2019-01-27T00:02:15.278Z,-2.78
2019-01-27T00:04:44.571Z,-2.74
2019-01-27T00:07:13.888Z,-2.75
2019-01-27T00:09:43.248Z,-2.76
2019-01-27T00:12:12.643Z,-2.76
2019-01-27T00:14:41.997Z,-2.74
2019-01-27T00:17:11.334Z,-2.74
2019-01-27T00:19:40.680Z,-2.72
2019-01-27T00:22:10.043Z,-2.64
2019-01-27T00:24:39.413Z,-2.68
2019-01-27T00:27:08.825Z,-2.64
2019-01-27T00:29:38.187Z,-2.62
2019-01-27T00:32:07.586Z,-2.63
2019-01-27T00:34:36.965Z,-2.62
2019-01-27T00:37:06.338Z,-2.64
2019-01-27T00:39:35.717Z,-2.63
2019-01-27T00:42:05.265Z,-2.61
2019-01-27T00:44:37.196Z,-2.59
2019-01-27T00:47:06.537Z,-2.56
2019-01-27T00:49:35.951Z,-2.57
2019-01-27T00:52:05.743Z,-2.56
2019-01-27T00:54:35.085Z,-2.51
2019-01-27T00:57:04.659Z,-2.50
2019-01-27T00:59:34.002Z,-2.49
2019-01-27T01:02:03.384Z,-2.44
2019-01-27T01:04:32.755Z,-2.47
2019-01-27T01:07:02.158Z,-2.45
2019-01-27T01:09:31.487Z,-2.42
2019-01-27T01:12:00.821Z,-2.38
2019-01-27T01:14:30.257Z,-2.35
2019-01-27T01:16:59.635Z,-2.36
2019-01-27T01:19:29.117Z,-2.29
2019-01-27T01:21:58.475Z,-2.30
2019-01-27T01:24:27.941Z,-2.24
2019-01-27T01:26:57.256Z,-2.21
2019-01-27T01:29:26.594Z,-2.18
2019-01-27T01:31:55.978Z,-2.21
2019-01-27T01:34:25.415Z,-2.19
2019-01-27T01:36:54.765Z,-2.17
2019-01-27T01:39:24.192Z,-2.22
2019-01-27T01:41:53.530Z,-2.26
2019-01-27T01:44:22.837Z,-2.31
2019-01-27T01:46:52.176Z,-2.37
2019-01-27T01:49:21.624Z,-2.41
2019-01-27T01:51:50.981Z,-2.43
2019-01-27T01:54:20.338Z,-2.46
2019-01-27T01:56:49.793Z,-2.46
2019-01-27T01:59:19.193Z,-2.50
2019-01-27T02:01:48.522Z,-2.54
2019-01-27T02:04:17.980Z,-2.60
2019-01-27T02:06:47.476Z,-2.58
2019-01-27T02:09:16.773Z,-2.58
2019-01-27T02:11:46.148Z,-2.59
2019-01-27T02:14:15.484Z,-2.62
2019-01-27T02:16:44.844Z,-2.65
2019-01-27T02:19:14.287Z,-2.66
2019-01-27T02:21:44.805Z,-2.67
2019-01-27T02:24:14.162Z,-2.65
2019-01-27T02:26:43.536Z,-2.62
2019-01-27T02:29:12.900Z,-2.64
2019-01-27T02:31:42.241Z,-2.64
2019-01-27T02:34:11.548Z,-2.62
2019-01-27T02:36:40.955Z,-2.60
2019-01-27T02:39:10.842Z,-2.56
2019-01-27T02:41:40.254Z,-2.58
2019-01-27T02:44:09.525Z,-2.62
2019-01-27T02:46:38.897Z,-2.66
2019-01-27T02:49:08.370Z,-2.71
2019-01-27T02:51:37.718Z,-2.71
2019-01-27T02:54:07.252Z,-2.70
2019-01-27T02:56:36.593Z,-2.71
2019-01-27T02:59:06.012Z,-2.78
2019-01-27T03:01:35.425Z,-2.78
2019-01-27T03:04:05.383Z,-2.74
2019-01-27T03:06:47.594Z,-2.79
2019-01-27T03:09:23.448Z,-2.81
2019-01-27T03:11:52.765Z,-2.86
2019-01-27T03:14:22.876Z,-2.87
2019-01-27T03:16:53.824Z,-2.92
2019-01-27T03:19:23.349Z,-2.93
2019-01-27T03:21:52.662Z,-2.95
2019-01-27T03:24:22.060Z,-2.90
2019-01-27T03:26:51.409Z,-2.93
2019-01-27T03:29:20.731Z,-2.98
2019-01-27T03:31:50.073Z,-3.02
2019-01-27T03:34:19.399Z,-2.92
2019-01-27T03:36:48.752Z,-2.94
2019-01-27T03:39:18.153Z,-3.06
2019-01-27T03:41:47.508Z,-3.02
2019-01-27T03:44:16.849Z,-3.01
2019-01-27T03:46:46.195Z,-2.99
2019-01-27T03:49:15.563Z,-3.02
2019-01-27T03:51:44.933Z,-3.07
2019-01-27T03:54:14.263Z,-3.03
2019-01-27T03:56:43.613Z,-3.08
2019-01-27T03:59:12.979Z,-3.13
2019-01-27T04:01:42.315Z,-3.04
2019-01-27T04:04:11.659Z,-3.05
2019-01-27T04:06:41.070Z,-3.11
2019-01-27T04:09:12.052Z,-3.20
2019-01-27T04:11:41.366Z,-3.26
2019-01-27T04:14:10.699Z,-3.26
2019-01-27T04:16:40.015Z,-3.23
2019-01-27T04:19:09.331Z,-3.05
2019-01-27T04:21:38.680Z,-3.13
2019-01-27T04:24:08.001Z,-3.26
2019-01-27T04:26:37.352Z,-3.30
2019-01-27T04:29:06.749Z,-3.18
2019-01-27T04:31:36.089Z,-3.24
2019-01-27T04:34:05.573Z,-3.16
2019-01-27T04:36:34.929Z,-3.07
2019-01-27T04:39:06.744Z,-3.12
2019-01-27T04:41:36.074Z,-3.13
2019-01-27T04:44:05.750Z,-3.09
2019-01-27T04:46:35.096Z,-3.19
2019-01-27T04:49:04.509Z,-3.25
2019-01-27T04:51:33.862Z,-3.26
2019-01-27T04:54:03.264Z,-3.30
2019-01-27T04:56:32.572Z,-3.30
2019-01-27T04:59:01.926Z,-3.35
2019-01-27T05:01:31.372Z,-3.38
2019-01-27T05:04:05.463Z,-3.44
2019-01-27T05:06:34.774Z,-3.52
2019-01-27T05:09:05.613Z,-3.48
2019-01-27T05:11:34.951Z,-3.48
2019-01-27T05:14:04.384Z,-3.48
2019-01-27T05:16:33.688Z,-3.40
2019-01-27T05:19:03.034Z,-3.40
2019-01-27T05:21:34.326Z,-3.40
2019-01-27T05:24:03.569Z,-3.34
2019-01-27T05:26:32.932Z,-3.32
2019-01-27T05:29:02.802Z,-3.35
2019-01-27T05:31:32.200Z,-3.52
2019-01-27T05:34:01.563Z,-3.43
2019-01-27T05:36:30.994Z,-3.36
2019-01-27T05:39:00.408Z,-3.44
2019-01-27T05:41:29.853Z,-3.53
2019-01-27T05:43:59.166Z,-3.44
2019-01-27T05:46:28.558Z,-3.42
2019-01-27T05:48:57.987Z,-3.40
2019-01-27T05:51:27.391Z,-3.30
2019-01-27T05:53:56.779Z,-3.53
2019-01-27T05:56:26.229Z,-3.66
2019-01-27T05:58:55.580Z,-3.67
2019-01-27T06:01:24.907Z,-3.60
2019-01-27T06:03:54.238Z,-3.57
2019-01-27T06:06:23.545Z,-3.66
2019-01-27T06:08:52.912Z,-3.56
2019-01-27T06:11:22.240Z,-3.38
2019-01-27T06:13:51.589Z,-3.40
2019-01-27T06:16:21.196Z,-3.40
2019-01-27T06:18:50.636Z,-3.40
2019-01-27T06:21:20.025Z,-3.42
2019-01-27T06:23:49.448Z,-3.47
2019-01-27T06:26:18.847Z,-3.42
2019-01-27T06:28:48.145Z,-3.42
2019-01-27T06:31:17.477Z,-3.40
2019-01-27T06:33:55.214Z,-3.34
2019-01-27T06:36:24.971Z,-3.31
2019-01-27T06:38:54.432Z,-3.32
2019-01-27T06:41:23.761Z,-3.27
2019-01-27T06:43:53.109Z,-3.19
2019-01-27T06:46:22.532Z,-3.18
2019-01-27T06:48:51.900Z,-3.25
2019-01-27T06:51:21.246Z,-3.07
2019-01-27T06:53:50.644Z,-3.04
2019-01-27T06:56:19.993Z,-2.90
2019-01-27T06:59:17.201Z,-2.72
2019-01-27T07:02:05.515Z,-2.60
2019-01-27T07:04:43.900Z,-2.48
2019-01-27T07:07:36.942Z,-2.33
2019-01-27T07:10:26.843Z,-2.33
2019-01-27T07:13:15.083Z,-2.43
2019-01-27T07:16:06.329Z,-2.28
2019-01-27T07:18:54.420Z,-2.18
2019-01-27T07:21:48.837Z,-2.21
2019-01-27T07:24:28.202Z,-2.21
2019-01-27T07:27:22.385Z,-2.24
2019-01-27T07:30:09.260Z,-2.30
2019-01-27T07:32:50.181Z,-2.25
2019-01-27T07:35:33.136Z,-2.40
2019-01-27T07:38:13.873Z,-2.29
2019-01-27T07:40:57.905Z,-2.03
2019-01-27T07:43:39.844Z,-1.17
2019-01-27T07:46:33.841Z,-0.98
2019-01-27T07:49:28.112Z,-0.52
2019-01-27T07:52:15.378Z,0.49
2019-01-27T07:55:02.467Z,0.01
2019-01-27T07:57:41.976Z,0.01
2019-01-27T08:00:38.735Z,0.61
2019-01-27T08:03:33.152Z,1.01
2019-01-27T08:06:21.409Z,1.35
2019-01-27T08:08:56.503Z,1.36
2019-01-27T08:11:48.088Z,1.88
2019-01-27T08:14:35.350Z,1.94
2019-01-27T08:17:23.759Z,1.57
2019-01-27T08:20:10.672Z,1.97
2019-01-27T08:23:04.940Z,1.73
2019-01-27T08:25:43.095Z,2.10
2019-01-27T08:28:19.575Z,2.61
2019-01-27T08:31:06.492Z,2.21
2019-01-27T08:34:01.406Z,2.04
2019-01-27T08:36:45.059Z,2.18
2019-01-27T08:39:31.931Z,2.69
2019-01-27T08:42:28.682Z,3.10
2019-01-27T08:45:13.426Z,3.11
2019-01-27T08:47:42.764Z,2.94
2019-01-27T08:50:17.725Z,2.24
2019-01-27T08:52:47.071Z,2.32
2019-01-27T08:55:16.842Z,2.58
2019-01-27T08:57:46.198Z,2.43
2019-01-27T09:00:18.803Z,2.53
2019-01-27T09:03:12.969Z,2.90
2019-01-27T09:05:53.639Z,3.36
2019-01-27T09:08:41.439Z,3.28
2019-01-27T09:11:24.348Z,3.68
2019-01-27T09:14:13.954Z,4.40
2019-01-27T09:17:00.610Z,5.18
2019-01-27T09:19:51.713Z,5.46
2019-01-27T09:22:40.775Z,5.04
2019-01-27T09:25:29.070Z,4.95
2019-01-27T09:28:13.530Z,4.11
2019-01-27T09:30:48.928Z,4.05
2019-01-27T09:33:36.133Z,4.54
2019-01-27T09:36:20.980Z,4.95
2019-01-27T09:39:15.039Z,5.00
2019-01-27T09:42:03.332Z,5.56
2019-01-27T09:45:00.523Z,5.75
2019-01-27T09:47:47.876Z,5.91
2019-01-27T09:50:35.018Z,5.64
2019-01-27T09:53:13.705Z,5.29
2019-01-27T09:56:20.362Z,5.17
2019-01-27T09:59:14.872Z,4.62
2019-01-27T10:02:01.525Z,4.89
2019-01-27T10:04:42.243Z,5.35
2019-01-27T10:07:29.181Z,5.05
2019-01-27T10:10:16.892Z,4.24
2019-01-27T10:12:51.113Z,4.20
2019-01-27T10:15:57.927Z,4.83
2019-01-27T10:18:43.697Z,4.29
2019-01-27T10:21:30.888Z,3.37
2019-01-27T10:24:16.279Z,3.48
2019-01-27T10:27:13.740Z,4.21
2019-01-27T10:30:17.277Z,4.45
2019-01-27T10:33:16.554Z,3.93
2019-01-27T10:35:54.760Z,3.65
2019-01-27T10:38:37.707Z,3.73
2019-01-27T10:41:25.723Z,4.36
2019-01-27T10:44:06.275Z,4.63
2019-01-27T10:47:05.326Z,5.08
2019-01-27T10:49:48.811Z,5.28
2019-01-27T10:52:43.761Z,5.26
2019-01-27T10:55:30.967Z,5.37
2019-01-27T10:58:19.270Z,5.83
2019-01-27T11:01:13.498Z,5.77
2019-01-27T11:03:52.178Z,6.16
2019-01-27T11:06:39.167Z,5.75
2019-01-27T11:09:40.576Z,5.23
2019-01-27T11:12:28.827Z,5.55
2019-01-27T11:15:23.125Z,5.51
2019-01-27T11:18:10.464Z,6.11
2019-01-27T11:21:01.916Z,6.71
2019-01-27T11:23:49.028Z,6.76
2019-01-27T11:26:49.342Z,6.62
2019-01-27T11:29:53.615Z,5.52
2019-01-27T11:32:32.282Z,5.74
2019-01-27T11:35:19.222Z,5.36
2019-01-27T11:38:12.704Z,5.57
2019-01-27T11:41:01.132Z,5.45
2019-01-27T11:43:52.312Z,5.98
2019-01-27T11:46:32.538Z,6.35
2019-01-27T11:49:30.100Z,6.23
2019-01-27T11:52:03.304Z,6.42
2019-01-27T11:54:33.697Z,5.50
2019-01-27T11:57:05.334Z,6.80
2019-01-27T11:59:34.636Z,6.14
2019-01-27T12:02:03.849Z,5.54
2019-01-27T12:04:34.124Z,5.74
2019-01-27T12:07:07.846Z,5.90
2019-01-27T12:09:37.269Z,5.63
2019-01-27T12:12:06.728Z,5.26
2019-01-27T12:14:36.060Z,5.03
2019-01-27T12:17:05.469Z,5.45
2019-01-27T12:19:34.895Z,5.60
2019-01-27T12:22:04.279Z,5.73
2019-01-27T12:24:33.726Z,5.61
2019-01-27T12:27:03.068Z,5.68
2019-01-27T12:29:32.431Z,5.69
2019-01-27T12:32:01.793Z,5.47
2019-01-27T12:34:31.169Z,5.81
2019-01-27T12:37:00.759Z,5.92
2019-01-27T12:39:32.132Z,6.10
2019-01-27T12:42:01.507Z,5.77
2019-01-27T12:44:30.824Z,6.01
2019-01-27T12:47:00.161Z,6.53
2019-01-27T12:49:29.496Z,6.85
2019-01-27T12:51:58.901Z,6.50
2019-01-27T12:54:28.236Z,6.89
2019-01-27T12:56:57.550Z,6.54
2019-01-27T12:59:26.873Z,6.91
2019-01-27T13:01:56.168Z,6.84
2019-01-27T13:04:25.488Z,6.92
2019-01-27T13:06:54.843Z,7.02
2019-01-27T13:09:24.194Z,6.84
2019-01-27T13:11:53.553Z,6.63
2019-01-27T13:14:22.879Z,7.07
2019-01-27T13:16:52.191Z,7.27
2019-01-27T13:19:22.022Z,7.23
2019-01-27T13:21:51.328Z,6.81
2019-01-27T13:24:20.718Z,6.86
2019-01-27T13:26:50.059Z,7.05
2019-01-27T13:29:21.647Z,7.34
2019-01-27T13:31:50.959Z,7.17
2019-01-27T13:34:20.396Z,7.47
2019-01-27T13:36:49.703Z,7.54
2019-01-27T13:39:19.079Z,6.95
2019-01-27T13:41:48.457Z,6.76
2019-01-27T13:44:19.223Z,6.93
2019-01-27T13:46:48.690Z,6.99
2019-01-27T13:49:18.004Z,6.62
2019-01-27T13:51:47.340Z,7.04
2019-01-27T13:54:16.676Z,7.22
2019-01-27T13:56:46.262Z,7.04
2019-01-27T13:59:15.606Z,6.92
2019-01-27T14:01:44.958Z,6.93
2019-01-27T14:04:14.283Z,6.70
2019-01-27T14:06:43.631Z,6.68
2019-01-27T14:09:13.003Z,6.60
2019-01-27T14:11:42.353Z,6.52
2019-01-27T14:14:12.162Z,6.33
2019-01-27T14:16:46.324Z,6.26
2019-01-27T14:19:13.069Z,5.86
2019-01-27T14:21:42.603Z,5.41
2019-01-27T14:24:11.999Z,4.97
2019-01-27T14:26:41.339Z,4.48
2019-01-27T14:29:10.741Z,4.37
2019-01-27T14:31:40.095Z,4.22
2019-01-27T14:34:09.513Z,4.05
2019-01-27T14:36:38.867Z,3.89
2019-01-27T14:39:09.514Z,3.80
2019-01-27T14:41:38.845Z,3.58
2019-01-27T14:44:08.206Z,3.35
2019-01-27T14:46:37.571Z,3.25
2019-01-27T14:49:06.935Z,3.14
2019-01-27T14:51:36.274Z,2.93
2019-01-27T14:54:06.221Z,1.88
2019-01-27T14:56:35.571Z,2.73
2019-01-27T14:59:05.054Z,2.67
2019-01-27T15:01:34.395Z,2.61
2019-01-27T15:04:03.708Z,2.33
2019-01-27T15:06:33.109Z,2.18
2019-01-27T15:09:02.595Z,2.17
2019-01-27T15:11:31.999Z,2.07
2019-01-27T15:14:01.394Z,1.82
2019-01-27T15:16:30.798Z,1.82
2019-01-27T15:19:00.119Z,1.78
2019-01-27T15:21:29.780Z,1.64
2019-01-27T15:23:59.137Z,1.68
2019-01-27T15:26:28.491Z,1.66
2019-01-27T15:28:57.870Z,1.67
2019-01-27T15:31:27.190Z,1.57
2019-01-27T15:33:56.512Z,1.44
2019-01-27T15:36:29.087Z,1.39
2019-01-27T15:38:58.472Z,1.31
2019-01-27T15:41:27.823Z,1.21
2019-01-27T15:43:57.488Z,1.19
2019-01-27T15:46:26.834Z,1.16
2019-01-27T15:48:58.587Z,1.12
2019-01-27T15:51:27.955Z,1.08
2019-01-27T15:53:57.559Z,1.06
2019-01-27T15:56:26.887Z,1.03
2019-01-27T15:58:56.527Z,0.96
2019-01-27T16:01:25.854Z,0.95
2019-01-27T16:03:55.297Z,0.88
2019-01-27T16:06:24.666Z,0.79
2019-01-27T16:08:54.017Z,0.73
2019-01-27T16:11:23.356Z,0.73
2019-01-27T16:13:52.738Z,0.72
2019-01-27T16:16:22.082Z,0.69
2019-01-27T16:18:58.675Z,0.75
2019-01-27T16:21:22.522Z,0.79
2019-01-27T16:23:57.585Z,0.80
2019-01-27T16:26:27.345Z,0.73
2019-01-27T16:28:56.782Z,0.74
2019-01-27T16:31:37.323Z,0.69
2019-01-27T16:34:11.740Z,0.61
2019-01-27T16:36:43.339Z,0.59
2019-01-27T16:39:13.266Z,0.58
2019-01-27T16:41:42.919Z,0.61
2019-01-27T16:44:12.655Z,0.59
2019-01-27T16:46:41.970Z,0.58
2019-01-27T16:49:11.310Z,0.58
2019-01-27T16:51:48.998Z,0.54
2019-01-27T16:54:13.216Z,0.52
2019-01-27T16:56:42.576Z,0.55
2019-01-27T16:59:11.938Z,0.55
2019-01-27T17:01:41.251Z,0.69
2019-01-27T17:04:11.769Z,0.57
2019-01-27T17:06:41.176Z,0.53
2019-01-27T17:09:11.173Z,0.50
2019-01-27T17:11:43.690Z,0.49
2019-01-27T17:14:13.117Z,0.49
2019-01-27T17:16:42.485Z,0.43
2019-01-27T17:19:11.815Z,0.43
2019-01-27T17:21:43.128Z,0.48
2019-01-27T17:24:13.553Z,0.45
2019-01-27T17:26:42.875Z,0.42
2019-01-27T17:29:13.206Z,0.45
2019-01-27T17:31:44.874Z,0.42
2019-01-27T17:34:13.929Z,0.41
2019-01-27T17:36:45.552Z,0.36
2019-01-27T17:39:14.899Z,0.33
2019-01-27T17:41:45.512Z,0.34
2019-01-27T17:44:14.826Z,0.31
2019-01-27T17:46:44.190Z,0.29
2019-01-27T17:49:13.513Z,0.37
2019-01-27T17:51:42.878Z,0.38
2019-01-27T17:54:12.363Z,0.37
2019-01-27T17:56:42.752Z,0.37
2019-01-27T17:59:37.216Z,0.37
2019-01-27T18:02:17.189Z,0.43
2019-01-27T18:04:51.845Z,0.41
2019-01-27T18:07:46.204Z,0.42
2019-01-27T18:10:52.717Z,0.47
2019-01-27T18:13:53.645Z,0.56
2019-01-27T18:16:23.518Z,0.58
2019-01-27T18:18:53.241Z,0.66
2019-01-27T18:21:22.642Z,0.66
2019-01-27T18:23:52.419Z,0.61
2019-01-27T18:26:21.762Z,0.66
2019-01-27T18:28:51.952Z,0.69
2019-01-27T18:31:21.680Z,0.73
2019-01-27T18:33:52.000Z,0.67
2019-01-27T18:36:21.734Z,0.84
2019-01-27T18:38:51.079Z,0.92
2019-01-27T18:41:20.846Z,0.96
2019-01-27T18:43:50.246Z,0.86
2019-01-27T18:46:19.616Z,0.85
2019-01-27T18:48:49.025Z,0.73
2019-01-27T18:51:18.764Z,0.62
2019-01-27T18:54:09.778Z,0.53
2019-01-27T18:57:10.335Z,0.37
2019-01-27T19:00:04.714Z,0.19
2019-01-27T19:02:45.037Z,0.23
2019-01-27T19:05:42.831Z,0.10
2019-01-27T19:08:21.912Z,0.12
2019-01-27T19:11:10.209Z,0.12
2019-01-27T19:13:50.270Z,0.13
2019-01-27T19:16:35.907Z,0.96
2019-01-27T19:19:29.663Z,1.85
2019-01-27T19:22:16.936Z,2.60
2019-01-27T19:25:05.375Z,2.93
2019-01-27T19:27:55.432Z,2.76
2019-01-27T19:30:43.381Z,2.36
2019-01-27T19:33:29.327Z,2.53
2019-01-27T19:36:14.180Z,2.22
2019-01-27T19:39:02.473Z,1.93
2019-01-27T19:41:59.739Z,1.80
2019-01-27T19:44:53.706Z,1.43
2019-01-27T19:47:41.919Z,0.39
2019-01-27T19:50:36.129Z,-0.16
2019-01-27T19:53:24.439Z,-0.33
2019-01-27T19:56:24.270Z,-0.28
2019-01-27T19:59:21.859Z,-0.40
2019-01-27T20:02:19.206Z,-1.70
2019-01-27T20:05:05.010Z,-0.34
2019-01-27T20:07:41.949Z,-0.44
2019-01-27T20:10:29.308Z,-0.42
2019-01-27T20:13:13.018Z,-0.47
2019-01-27T20:16:01.292Z,-0.46
2019-01-27T20:19:08.034Z,-0.41
2019-01-27T20:22:08.321Z,-0.46
2019-01-27T20:24:56.599Z,-0.64
2019-01-27T20:27:43.928Z,-0.63
2019-01-27T20:30:32.145Z,-0.65
2019-01-27T20:33:24.413Z,-0.74
2019-01-27T20:36:11.878Z,-0.90
2019-01-27T20:39:09.712Z,-0.93
2019-01-27T20:42:05.779Z,-1.06
2019-01-27T20:45:06.093Z,-1.01
2019-01-27T20:47:53.561Z,-1.07
2019-01-27T20:50:37.412Z,-1.10
2019-01-27T20:53:25.165Z,-1.08
2019-01-27T20:56:28.761Z,-0.99
2019-01-27T20:59:23.059Z,-0.94
2019-01-27T21:02:04.615Z,-0.95
2019-01-27T21:04:40.133Z,-0.95
2019-01-27T21:07:18.610Z,-1.00
2019-01-27T21:10:02.247Z,-0.98
2019-01-27T21:12:49.544Z,-0.99
2019-01-27T21:15:44.170Z,-1.07
2019-01-27T21:18:28.556Z,-1.02
2019-01-27T21:20:57.903Z,-1.10
2019-01-27T21:23:27.073Z,-1.21
2019-01-27T21:25:56.397Z,-1.19
2019-01-27T21:28:25.808Z,-1.21
2019-01-27T21:30:55.177Z,-1.13
2019-01-27T21:33:24.570Z,-0.95
2019-01-27T21:35:54.375Z,-1.02
2019-01-27T21:38:23.783Z,-1.13
2019-01-27T21:40:53.147Z,-1.04
2019-01-27T21:43:22.502Z,-1.06
2019-01-27T21:45:53.734Z,-1.10
2019-01-27T21:48:23.626Z,-1.04
2019-01-27T21:50:53.863Z,-1.09
2019-01-27T21:53:23.623Z,-1.19
2019-01-27T21:55:53.221Z,-1.18
2019-01-27T21:58:22.832Z,-1.14
2019-01-27T22:00:52.538Z,-1.16
2019-01-27T22:03:22.223Z,-1.26
2019-01-27T22:05:51.911Z,-1.20
2019-01-27T22:08:21.429Z,-1.32
2019-01-27T22:10:50.829Z,-1.43
2019-01-27T22:13:20.556Z,-1.55
2019-01-27T22:15:52.304Z,-1.54
2019-01-27T22:18:22.159Z,-1.49
2019-01-27T22:20:59.295Z,-1.50
2019-01-27T22:24:24.754Z,-1.49
2019-01-27T22:26:54.291Z,-1.50
2019-01-27T22:29:23.726Z,-1.56
2019-01-27T22:31:53.518Z,-1.77
2019-01-27T22:34:22.967Z,-1.48
2019-01-27T22:36:52.415Z,-1.42
2019-01-27T22:39:21.809Z,-1.45
2019-01-27T22:41:51.495Z,-1.46
2019-01-27T22:44:20.893Z,-1.45
2019-01-27T22:46:50.416Z,-1.46
2019-01-27T22:49:19.855Z,-1.40
2019-01-27T22:51:49.239Z,-1.46
2019-01-27T22:54:18.716Z,-1.46
2019-01-27T22:56:48.080Z,-1.40
2019-01-27T22:59:17.520Z,-1.51
2019-01-27T23:01:47.271Z,-1.47
2019-01-27T23:04:16.707Z,-1.46
2019-01-27T23:06:46.071Z,-1.47
2019-01-27T23:09:18.492Z,-1.48
2019-01-27T23:11:47.844Z,-1.43
2019-01-27T23:14:17.198Z,-1.39
2019-01-27T23:16:46.532Z,-1.41
2019-01-27T23:19:15.874Z,-1.29
2019-01-27T23:21:45.243Z,-1.26
2019-01-27T23:24:14.587Z,-1.26
2019-01-27T23:26:44.008Z,-1.19
2019-01-27T23:29:13.347Z,-1.15
2019-01-27T23:31:42.685Z,-1.11
2019-01-27T23:34:12.270Z,-1.06
2019-01-27T23:36:41.846Z,-0.92
2019-01-27T23:39:11.552Z,-0.98
2019-01-27T23:41:40.951Z,-0.86
2019-01-27T23:44:10.325Z,-0.78
2019-01-27T23:46:39.726Z,-0.92
2019-01-27T23:49:09.082Z,-0.94
2019-01-27T23:51:38.479Z,-1.09
2019-01-27T23:54:07.845Z,-1.21
2019-01-27T23:56:37.186Z,-1.34
2019-01-27T23:59:06.496Z,-1.44
